sensor_id;sensor_type;location;lat;lon;timestamp;pressure;altitude;pressure_sealevel;temperature;humidity
39555;BME280;25231;48.746;9.234;2023-02-12T00:02:13;98617.69;;;5.24;100.00
39555;BME280;25231;48.746;9.234;2023-02-12T00:04:39;98614.03;;;5.17;100.00
39555;BME280;25231;48.746;9.234;2023-02-12T00:07:04;98612.00;;;5.11;100.00
39555;BME280;25231;48.746;9.234;2023-02-12T00:09:30;98621.88;;;5.07;100.00
39555;BME280;25231;48.746;9.234;2023-02-12T00:11:55;98622.28;;;5.12;100.00
39555;BME280;25231;48.746;9.234;2023-02-12T00:14:21;98623.16;;;5.21;100.00
39555;BME280;25231;48.746;9.234;2023-02-12T00:16:46;98622.66;;;5.17;100.00
39555;BME280;25231;48.746;9.234;2023-02-12T00:19:11;98621.72;;;5.09;100.00
39555;BME280;25231;48.746;9.234;2023-02-12T00:21:37;98623.38;;;5.10;100.00
39555;BME280;25231;48.746;9.234;2023-02-12T00:24:02;98624.31;;;5.09;100.00
39555;BME280;25231;48.746;9.234;2023-02-12T00:26:28;98618.84;;;5.12;100.00
39555;BME280;25231;48.746;9.234;2023-02-12T00:28:54;98625.75;;;5.21;100.00
39555;BME280;25231;48.746;9.234;2023-02-12T00:31:22;98622.91;;;5.14;100.00
39555;BME280;25231;48.746;9.234;2023-02-12T00:33:48;98630.59;;;5.16;100.00
39555;BME280;25231;48.746;9.234;2023-02-12T00:36:17;98624.13;;;5.20;100.00
39555;BME280;25231;48.746;9.234;2023-02-12T00:38:44;98628.72;;;5.26;100.00
39555;BME280;25231;48.746;9.234;2023-02-12T00:41:10;98630.06;;;5.30;100.00
39555;BME280;25231;48.746;9.234;2023-02-12T00:43:40;98629.84;;;5.41;100.00
39555;BME280;25231;48.746;9.234;2023-02-12T00:46:06;98633.72;;;5.37;100.00
39555;BME280;25231;48.746;9.234;2023-02-12T00:48:32;98630.88;;;5.30;100.00
39555;BME280;25231;48.746;9.234;2023-02-12T00:50:58;98642.78;;;5.33;100.00
39555;BME280;25231;48.746;9.234;2023-02-12T00:53:24;98645.06;;;5.18;100.00
39555;BME280;25231;48.746;9.234;2023-02-12T00:55:50;98643.00;;;5.22;100.00
39555;BME280;25231;48.746;9.234;2023-02-12T00:58:15;98638.31;;;5.25;100.00
39555;BME280;25231;48.746;9.234;2023-02-12T01:00:41;98638.16;;;5.27;100.00
39555;BME280;25231;48.746;9.234;2023-02-12T01:03:07;98630.13;;;5.20;100.00
39555;BME280;25231;48.746;9.234;2023-02-12T01:05:33;98629.75;;;5.15;100.00
39555;BME280;25231;48.746;9.234;2023-02-12T01:07:58;98646.84;;;5.18;100.00
39555;BME280;25231;48.746;9.234;2023-02-12T01:10:24;98638.88;;;5.19;100.00
39555;BME280;25231;48.746;9.234;2023-02-12T01:12:49;98636.47;;;5.18;100.00
39555;BME280;25231;48.746;9.234;2023-02-12T01:15:16;98631.09;;;5.19;100.00
39555;BME280;25231;48.746;9.234;2023-02-12T01:17:43;98636.00;;;5.22;100.00
39555;BME280;25231;48.746;9.234;2023-02-12T01:20:12;98637.50;;;5.25;100.00
39555;BME280;25231;48.746;9.234;2023-02-12T01:22:38;98633.03;;;5.17;100.00
39555;BME280;25231;48.746;9.234;2023-02-12T01:25:08;98634.69;;;5.18;100.00
39555;BME280;25231;48.746;9.234;2023-02-12T01:27:34;98630.28;;;5.19;100.00
39555;BME280;25231;48.746;9.234;2023-02-12T01:29:59;98635.63;;;5.17;100.00
39555;BME280;25231;48.746;9.234;2023-02-12T01:32:25;98630.81;;;5.22;100.00
39555;BME280;25231;48.746;9.234;2023-02-12T01:34:50;98626.81;;;5.28;100.00
39555;BME280;25231;48.746;9.234;2023-02-12T01:37:16;98631.63;;;5.23;100.00
39555;BME280;25231;48.746;9.234;2023-02-12T01:39:41;98631.63;;;5.23;100.00
39555;BME280;25231;48.746;9.234;2023-02-12T01:42:11;98635.63;;;5.17;100.00
39555;BME280;25231;48.746;9.234;2023-02-12T01:44:42;98631.31;;;5.26;100.00
39555;BME280;25231;48.746;9.234;2023-02-12T01:47:15;98629.19;;;5.21;100.00
39555;BME280;25231;48.746;9.234;2023-02-12T01:49:43;98627.16;;;5.15;100.00
39555;BME280;25231;48.746;9.234;2023-02-12T01:52:17;98630.44;;;5.17;100.00
39555;BME280;25231;48.746;9.234;2023-02-12T01:57:34;98624.78;;;5.22;100.00
39555;BME280;25231;48.746;9.234;2023-02-12T02:00:05;98620.41;;;5.22;100.00
39555;BME280;25231;48.746;9.234;2023-02-12T02:02:33;98618.47;;;5.24;100.00
39555;BME280;25231;48.746;9.234;2023-02-12T02:05:01;98615.66;;;5.18;100.00
39555;BME280;25231;48.746;9.234;2023-02-12T02:07:28;98628.81;;;5.34;100.00
39555;BME280;25231;48.746;9.234;2023-02-12T02:09:54;98627.19;;;5.33;100.00
39555;BME280;25231;48.746;9.234;2023-02-12T02:12:22;98624.06;;;5.29;100.00
39555;BME280;25231;48.746;9.234;2023-02-12T02:15:06;98612.47;;;5.24;100.00
39555;BME280;25231;48.746;9.234;2023-02-12T02:18:06;98621.25;;;5.23;100.00
39555;BME280;25231;48.746;9.234;2023-02-12T02:32:02;98604.44;;;5.53;100.00
39555;BME280;25231;48.746;9.234;2023-02-12T02:34:47;98606.59;;;5.57;100.00
39555;BME280;25231;48.746;9.234;2023-02-12T02:37:45;98605.78;;;5.21;100.00
39555;BME280;25231;48.746;9.234;2023-02-12T02:40:34;98600.59;;;5.21;100.00
39555;BME280;25231;48.746;9.234;2023-02-12T02:43:18;98602.44;;;5.11;100.00
39555;BME280;25231;48.746;9.234;2023-02-12T02:45:48;98607.78;;;5.10;100.00
39555;BME280;25231;48.746;9.234;2023-02-12T02:48:36;98597.16;;;5.03;100.00
39555;BME280;25231;48.746;9.234;2023-02-12T02:51:15;98601.00;;;4.99;100.00
39555;BME280;25231;48.746;9.234;2023-02-12T02:53:56;98596.03;;;5.06;100.00
39555;BME280;25231;48.746;9.234;2023-02-12T02:56:27;98604.69;;;5.24;100.00
39555;BME280;25231;48.746;9.234;2023-02-12T02:58:58;98596.94;;;5.14;100.00
39555;BME280;25231;48.746;9.234;2023-02-12T03:01:30;98599.91;;;5.19;100.00
39555;BME280;25231;48.746;9.234;2023-02-12T03:04:03;98593.00;;;5.10;100.00
39555;BME280;25231;48.746;9.234;2023-02-12T03:06:38;98595.25;;;5.23;100.00
39555;BME280;25231;48.746;9.234;2023-02-12T03:09:13;98597.97;;;5.03;100.00
39555;BME280;25231;48.746;9.234;2023-02-12T03:11:42;98599.47;;;5.06;100.00
39555;BME280;25231;48.746;9.234;2023-02-12T03:14:24;98606.81;;;5.11;100.00
39555;BME280;25231;48.746;9.234;2023-02-12T03:17:09;98597.72;;;4.97;100.00
39555;BME280;25231;48.746;9.234;2023-02-12T03:19:52;98607.94;;;5.26;100.00
39555;BME280;25231;48.746;9.234;2023-02-12T03:22:25;98608.66;;;5.00;100.00
39555;BME280;25231;48.746;9.234;2023-02-12T03:25:14;98603.56;;;4.81;100.00
39555;BME280;25231;48.746;9.234;2023-02-12T03:28:05;98616.47;;;4.73;100.00
39555;BME280;25231;48.746;9.234;2023-02-12T03:30:41;98620.78;;;4.82;100.00
39555;BME280;25231;48.746;9.234;2023-02-12T03:36:42;98614.59;;;4.66;100.00
39555;BME280;25231;48.746;9.234;2023-02-12T03:38:53;98611.75;;;4.59;100.00
39555;BME280;25231;48.746;9.234;2023-02-12T03:41:24;98611.69;;;4.96;100.00
39555;BME280;25231;48.746;9.234;2023-02-12T03:43:56;98603.28;;;4.84;100.00
39555;BME280;25231;48.746;9.234;2023-02-12T03:46:40;98608.06;;;4.62;100.00
39555;BME280;25231;48.746;9.234;2023-02-12T03:49:11;98607.38;;;4.59;100.00
39555;BME280;25231;48.746;9.234;2023-02-12T03:51:43;98611.06;;;4.57;100.00
39555;BME280;25231;48.746;9.234;2023-02-12T03:54:11;98613.25;;;4.62;100.00
39555;BME280;25231;48.746;9.234;2023-02-12T03:56:51;98617.25;;;4.56;100.00
39555;BME280;25231;48.746;9.234;2023-02-12T03:59:20;98613.81;;;4.55;100.00
39555;BME280;25231;48.746;9.234;2023-02-12T04:01:47;98621.38;;;4.76;100.00
39555;BME280;25231;48.746;9.234;2023-02-12T04:04:14;98618.59;;;4.60;100.00
39555;BME280;25231;48.746;9.234;2023-02-12T04:06:40;98621.00;;;4.71;100.00
39555;BME280;25231;48.746;9.234;2023-02-12T04:09:08;98625.56;;;4.59;100.00
39555;BME280;25231;48.746;9.234;2023-02-12T04:14:36;98624.66;;;4.51;100.00
39555;BME280;25231;48.746;9.234;2023-02-12T04:17:13;98628.84;;;4.52;100.00
39555;BME280;25231;48.746;9.234;2023-02-12T04:23:29;98627.25;;;4.78;100.00
39555;BME280;25231;48.746;9.234;2023-02-12T04:30:56;98633.69;;;4.74;100.00
39555;BME280;25231;48.746;9.234;2023-02-12T04:33:25;98640.66;;;4.74;100.00
39555;BME280;25231;48.746;9.234;2023-02-12T04:36:00;98631.63;;;4.78;100.00
39555;BME280;25231;48.746;9.234;2023-02-12T04:38:40;98639.66;;;4.84;100.00
39555;BME280;25231;48.746;9.234;2023-02-12T04:41:09;98637.00;;;4.94;100.00
39555;BME280;25231;48.746;9.234;2023-02-12T04:43:36;98638.53;;;4.87;100.00
39555;BME280;25231;48.746;9.234;2023-02-12T04:46:04;98634.03;;;4.52;100.00
39555;BME280;25231;48.746;9.234;2023-02-12T04:48:30;98639.09;;;4.53;100.00
39555;BME280;25231;48.746;9.234;2023-02-12T04:50:56;98637.91;;;4.48;100.00
39555;BME280;25231;48.746;9.234;2023-02-12T04:53:21;98637.63;;;4.41;100.00
39555;BME280;25231;48.746;9.234;2023-02-12T04:55:47;98644.78;;;4.39;100.00
39555;BME280;25231;48.746;9.234;2023-02-12T04:58:15;98639.91;;;4.54;100.00
39555;BME280;25231;48.746;9.234;2023-02-12T05:00:40;98643.59;;;4.61;100.00
39555;BME280;25231;48.746;9.234;2023-02-12T05:03:06;98646.75;;;4.55;100.00
39555;BME280;25231;48.746;9.234;2023-02-12T05:05:32;98645.44;;;4.69;100.00
39555;BME280;25231;48.746;9.234;2023-02-12T05:07:57;98639.84;;;4.73;100.00
39555;BME280;25231;48.746;9.234;2023-02-12T05:10:22;98640.75;;;4.54;100.00
39555;BME280;25231;48.746;9.234;2023-02-12T05:12:51;98639.09;;;4.53;100.00
39555;BME280;25231;48.746;9.234;2023-02-12T05:15:17;98633.53;;;4.48;100.00
39555;BME280;25231;48.746;9.234;2023-02-12T05:17:42;98632.84;;;4.46;100.00
39555;BME280;25231;48.746;9.234;2023-02-12T05:20:11;98634.47;;;4.47;100.00
39555;BME280;25231;48.746;9.234;2023-02-12T05:22:36;98638.59;;;4.50;100.00
39555;BME280;25231;48.746;9.234;2023-02-12T05:25:03;98644.59;;;4.41;100.00
39555;BME280;25231;48.746;9.234;2023-02-12T05:27:28;98638.38;;;4.34;100.00
39555;BME280;25231;48.746;9.234;2023-02-12T05:29:55;98632.75;;;4.38;100.00
39555;BME280;25231;48.746;9.234;2023-02-12T05:32:21;98639.97;;;4.44;100.00
39555;BME280;25231;48.746;9.234;2023-02-12T05:34:47;98629.47;;;4.36;100.00
39555;BME280;25231;48.746;9.234;2023-02-12T05:37:12;98639.53;;;4.49;100.00
39555;BME280;25231;48.746;9.234;2023-02-12T05:39:38;98642.38;;;4.55;100.00
39555;BME280;25231;48.746;9.234;2023-02-12T05:42:03;98632.81;;;4.56;100.00
39555;BME280;25231;48.746;9.234;2023-02-12T05:44:29;98632.97;;;4.54;100.00
39555;BME280;25231;48.746;9.234;2023-02-12T05:46:54;98637.84;;;4.57;100.00
39555;BME280;25231;48.746;9.234;2023-02-12T05:52:22;98637.91;;;4.48;100.00
39555;BME280;25231;48.746;9.234;2023-02-12T05:54:49;98639.06;;;4.63;100.00
39555;BME280;25231;48.746;9.234;2023-02-12T05:57:14;98640.19;;;4.88;100.00
39555;BME280;25231;48.746;9.234;2023-02-12T05:59:39;98644.56;;;4.87;100.00
39555;BME280;25231;48.746;9.234;2023-02-12T06:02:05;98637.00;;;4.67;100.00
39555;BME280;25231;48.746;9.234;2023-02-12T06:04:30;98644.19;;;4.82;100.00
39555;BME280;25231;48.746;9.234;2023-02-12T06:06:56;98641.00;;;4.88;100.00
39555;BME280;25231;48.746;9.234;2023-02-12T06:09:22;98639.16;;;4.71;100.00
39555;BME280;25231;48.746;9.234;2023-02-12T06:11:47;98643.34;;;4.54;100.00
39555;BME280;25231;48.746;9.234;2023-02-12T06:14:15;98638.97;;;4.55;100.00
39555;BME280;25231;48.746;9.234;2023-02-12T06:16:46;98642.97;;;4.77;100.00
39555;BME280;25231;48.746;9.234;2023-02-12T06:19:12;98635.88;;;4.79;100.00
39555;BME280;25231;48.746;9.234;2023-02-12T06:21:38;98643.22;;;4.56;100.00
39555;BME280;25231;48.746;9.234;2023-02-12T06:24:04;98643.41;;;4.72;100.00
39555;BME280;25231;48.746;9.234;2023-02-12T06:26:29;98644.03;;;4.47;100.00
39555;BME280;25231;48.746;9.234;2023-02-12T06:28:55;98646.81;;;4.45;100.00
39555;BME280;25231;48.746;9.234;2023-02-12T06:31:23;98646.75;;;4.55;100.00
39555;BME280;25231;48.746;9.234;2023-02-12T06:33:49;98645.94;;;4.82;100.00
39555;BME280;25231;48.746;9.234;2023-02-12T06:36:16;98651.25;;;4.53;100.00
39555;BME280;25231;48.746;9.234;2023-02-12T06:38:41;98655.50;;;4.54;100.00
39555;BME280;25231;48.746;9.234;2023-02-12T06:41:08;98658.06;;;4.64;100.00
39555;BME280;25231;48.746;9.234;2023-02-12T06:43:33;98663.97;;;4.56;100.00
39555;BME280;25231;48.746;9.234;2023-02-12T06:46:00;98667.28;;;4.48;100.00
39555;BME280;25231;48.746;9.234;2023-02-12T06:48:26;98671.00;;;4.36;100.00
39555;BME280;25231;48.746;9.234;2023-02-12T06:50:52;98667.06;;;4.32;100.00
39555;BME280;25231;48.746;9.234;2023-02-12T06:53:17;98665.59;;;4.57;100.00
39555;BME280;25231;48.746;9.234;2023-02-12T06:55:42;98667.41;;;4.56;100.00
39555;BME280;25231;48.746;9.234;2023-02-12T07:01:19;98677.13;;;4.45;100.00
39555;BME280;25231;48.746;9.234;2023-02-12T07:03:54;98674.31;;;4.19;100.00
39555;BME280;25231;48.746;9.234;2023-02-12T07:06:20;98668.44;;;4.64;100.00
39555;BME280;25231;48.746;9.234;2023-02-12T07:08:46;98680.13;;;4.40;100.00
39555;BME280;25231;48.746;9.234;2023-02-12T07:11:12;98678.91;;;4.35;100.00
39555;BME280;25231;48.746;9.234;2023-02-12T07:13:40;98671.34;;;4.60;100.00
39555;BME280;25231;48.746;9.234;2023-02-12T07:16:10;98666.84;;;4.53;100.00
39555;BME280;25231;48.746;9.234;2023-02-12T07:18:37;98674.50;;;4.54;100.00
39555;BME280;25231;48.746;9.234;2023-02-12T07:21:04;98672.81;;;4.63;100.00
39555;BME280;25231;48.746;9.234;2023-02-12T07:23:30;98672.69;;;4.65;100.00
39555;BME280;25231;48.746;9.234;2023-02-12T07:26:03;98679.25;;;4.59;100.00
39555;BME280;25231;48.746;9.234;2023-02-12T07:28:29;98680.03;;;4.69;100.00
39555;BME280;25231;48.746;9.234;2023-02-12T07:30:58;98679.59;;;4.74;100.00
39555;BME280;25231;48.746;9.234;2023-02-12T07:33:23;98681.00;;;4.68;100.00
39555;BME280;25231;48.746;9.234;2023-02-12T07:35:48;98684.00;;;4.73;100.00
39555;BME280;25231;48.746;9.234;2023-02-12T07:38:14;98682.13;;;4.93;100.00
39555;BME280;25231;48.746;9.234;2023-02-12T07:40:39;98683.81;;;4.84;100.00
39555;BME280;25231;48.746;9.234;2023-02-12T07:43:05;98688.44;;;5.18;100.00
39555;BME280;25231;48.746;9.234;2023-02-12T07:45:30;98681.25;;;5.29;100.00
39555;BME280;25231;48.746;9.234;2023-02-12T07:47:55;98690.50;;;4.87;100.00
39555;BME280;25231;48.746;9.234;2023-02-12T07:50:21;98681.94;;;5.04;100.00
39555;BME280;25231;48.746;9.234;2023-02-12T07:52:48;98677.69;;;5.30;100.00
39555;BME280;25231;48.746;9.234;2023-02-12T07:55:14;98683.09;;;4.92;100.00
39555;BME280;25231;48.746;9.234;2023-02-12T07:57:39;98682.25;;;4.91;100.00
39555;BME280;25231;48.746;9.234;2023-02-12T08:00:05;98683.63;;;5.23;100.00
39555;BME280;25231;48.746;9.234;2023-02-12T08:02:31;98677.56;;;5.05;100.00
39555;BME280;25231;48.746;9.234;2023-02-12T08:04:57;98678.94;;;5.26;100.00
39555;BME280;25231;48.746;9.234;2023-02-12T08:07:23;98687.03;;;5.23;100.00
39555;BME280;25231;48.746;9.234;2023-02-12T08:09:49;98681.47;;;5.36;100.00
39555;BME280;25231;48.746;9.234;2023-02-12T08:12:15;98678.59;;;5.39;100.00
39555;BME280;25231;48.746;9.234;2023-02-12T08:14:41;98674.28;;;5.48;100.00
39555;BME280;25231;48.746;9.234;2023-02-12T08:17:07;98682.53;;;5.61;100.00
39555;BME280;25231;48.746;9.234;2023-02-12T08:19:33;98674.50;;;5.54;100.00
39555;BME280;25231;48.746;9.234;2023-02-12T08:21:59;98676.88;;;5.65;100.00
39555;BME280;25231;48.746;9.234;2023-02-12T08:24:26;98678.31;;;5.95;100.00
39555;BME280;25231;48.746;9.234;2023-02-12T08:26:52;98672.50;;;5.83;100.00
39555;BME280;25231;48.746;9.234;2023-02-12T08:29:20;98677.72;;;5.83;100.00
39555;BME280;25231;48.746;9.234;2023-02-12T08:31:48;98679.72;;;5.72;100.00
39555;BME280;25231;48.746;9.234;2023-02-12T08:34:20;98685.59;;;5.74;100.00
39555;BME280;25231;48.746;9.234;2023-02-12T08:36:47;98673.91;;;5.60;100.00
39555;BME280;25231;48.746;9.234;2023-02-12T08:39:15;98668.94;;;5.49;100.00
39555;BME280;25231;48.746;9.234;2023-02-12T08:41:41;98676.00;;;5.39;100.00
39555;BME280;25231;48.746;9.234;2023-02-12T08:44:08;98672.88;;;5.53;100.00
39555;BME280;25231;48.746;9.234;2023-02-12T08:46:35;98677.84;;;5.64;100.00
39555;BME280;25231;48.746;9.234;2023-02-12T08:49:04;98676.31;;;5.71;100.00
39555;BME280;25231;48.746;9.234;2023-02-12T08:51:32;98673.25;;;5.58;100.00
39555;BME280;25231;48.746;9.234;2023-02-12T08:54:01;98671.53;;;5.84;100.00
39555;BME280;25231;48.746;9.234;2023-02-12T08:56:30;98681.75;;;5.96;100.00
39555;BME280;25231;48.746;9.234;2023-02-12T08:58:57;98680.09;;;5.77;100.00
39555;BME280;25231;48.746;9.234;2023-02-12T09:01:25;98681.56;;;5.97;100.00
39555;BME280;25231;48.746;9.234;2023-02-12T09:03:51;98678.25;;;5.87;100.00
39555;BME280;25231;48.746;9.234;2023-02-12T09:06:19;98690.66;;;5.93;100.00
39555;BME280;25231;48.746;9.234;2023-02-12T09:08:45;98687.06;;;5.76;100.00
39555;BME280;25231;48.746;9.234;2023-02-12T09:11:22;98682.88;;;5.30;100.00
39555;BME280;25231;48.746;9.234;2023-02-12T09:13:51;98687.75;;;5.78;100.00
39555;BME280;25231;48.746;9.234;2023-02-12T09:16:17;98677.63;;;5.75;100.00
39555;BME280;25231;48.746;9.234;2023-02-12T09:18:43;98684.41;;;6.04;100.00
39555;BME280;25231;48.746;9.234;2023-02-12T09:21:13;98682.09;;;5.83;100.00
39555;BME280;25231;48.746;9.234;2023-02-12T09:23:41;98676.22;;;5.99;100.00
39555;BME280;25231;48.746;9.234;2023-02-12T09:26:09;98679.88;;;6.06;100.00
39555;BME280;25231;48.746;9.234;2023-02-12T09:28:36;98677.38;;;6.22;100.00
39555;BME280;25231;48.746;9.234;2023-02-12T09:31:13;98678.56;;;6.53;100.00
39555;BME280;25231;48.746;9.234;2023-02-12T09:33:40;98687.25;;;6.62;100.00
39555;BME280;25231;48.746;9.234;2023-02-12T09:36:12;98691.38;;;6.47;100.00
39555;BME280;25231;48.746;9.234;2023-02-12T09:38:38;98687.44;;;6.43;100.00
39555;BME280;25231;48.746;9.234;2023-02-12T09:43:59;98687.19;;;6.88;100.00
39555;BME280;25231;48.746;9.234;2023-02-12T09:46:31;98680.47;;;7.11;100.00
39555;BME280;25231;48.746;9.234;2023-02-12T09:51:23;98687.59;;;7.09;100.00
39555;BME280;25231;48.746;9.234;2023-02-12T09:53:59;98695.28;;;7.10;100.00
39555;BME280;25231;48.746;9.234;2023-02-12T09:56:26;98683.78;;;7.29;100.00
39555;BME280;25231;48.746;9.234;2023-02-12T09:59:00;98690.28;;;6.83;100.00
39555;BME280;25231;48.746;9.234;2023-02-12T10:01:28;98692.94;;;6.65;100.00
39555;BME280;25231;48.746;9.234;2023-02-12T10:03:54;98693.78;;;6.66;100.00
39555;BME280;25231;48.746;9.234;2023-02-12T10:11:59;98694.53;;;6.84;100.00
39555;BME280;25231;48.746;9.234;2023-02-12T10:23:20;98686.72;;;6.84;100.00
39555;BME280;25231;48.746;9.234;2023-02-12T10:30:53;98685.00;;;7.01;100.00
39555;BME280;25231;48.746;9.234;2023-02-12T10:33:31;98686.00;;;7.16;100.00
39555;BME280;25231;48.746;9.234;2023-02-12T10:41:41;98685.69;;;6.77;100.00
39555;BME280;25231;48.746;9.234;2023-02-12T10:44:09;98687.16;;;7.22;100.00
39555;BME280;25231;48.746;9.234;2023-02-12T10:46:35;98676.56;;;7.15;100.00
39555;BME280;25231;48.746;9.234;2023-02-12T10:49:02;98672.34;;;7.30;100.00
39555;BME280;25231;48.746;9.234;2023-02-12T10:51:42;98666.50;;;7.36;100.00
39555;BME280;25231;48.746;9.234;2023-02-12T10:54:39;98662.41;;;7.26;100.00
39555;BME280;25231;48.746;9.234;2023-02-12T10:57:21;98663.44;;;6.91;100.00
39555;BME280;25231;48.746;9.234;2023-02-12T10:59:50;98660.97;;;7.39;100.00
39555;BME280;25231;48.746;9.234;2023-02-12T11:04:45;98654.47;;;7.60;99.71
39555;BME280;25231;48.746;9.234;2023-02-12T11:07:11;98655.97;;;7.62;100.00
39555;BME280;25231;48.746;9.234;2023-02-12T11:09:37;98654.50;;;7.76;99.46
39555;BME280;25231;48.746;9.234;2023-02-12T11:12:31;98656.59;;;7.56;100.00
39555;BME280;25231;48.746;9.234;2023-02-12T11:15:03;98655.47;;;7.99;98.64
39555;BME280;25231;48.746;9.234;2023-02-12T11:17:39;98647.66;;;8.07;98.55
39555;BME280;25231;48.746;9.234;2023-02-12T11:25:15;98657.38;;;7.32;100.00
39555;BME280;25231;48.746;9.234;2023-02-12T11:27:41;98658.31;;;7.15;100.00
39555;BME280;25231;48.746;9.234;2023-02-12T11:30:18;98648.44;;;7.59;100.00
39555;BME280;25231;48.746;9.234;2023-02-12T11:32:44;98643.63;;;7.14;100.00
39555;BME280;25231;48.746;9.234;2023-02-12T11:35:24;98648.03;;;7.14;100.00
39555;BME280;25231;48.746;9.234;2023-02-12T11:37:57;98654.94;;;7.47;100.00
39555;BME280;25231;48.746;9.234;2023-02-12T11:40:26;98649.88;;;7.29;100.00
39555;BME280;25231;48.746;9.234;2023-02-12T11:42:55;98651.19;;;7.41;100.00
39555;BME280;25231;48.746;9.234;2023-02-12T11:45:31;98662.97;;;7.03;100.00
39555;BME280;25231;48.746;9.234;2023-02-12T11:47:58;98652.00;;;6.84;100.00
39555;BME280;25231;48.746;9.234;2023-02-12T11:50:27;98651.44;;;7.06;100.00
39555;BME280;25231;48.746;9.234;2023-02-12T11:52:57;98651.09;;;7.01;100.00
39555;BME280;25231;48.746;9.234;2023-02-12T11:57:53;98637.47;;;7.23;100.00
39555;BME280;25231;48.746;9.234;2023-02-12T12:00:36;98638.28;;;7.24;100.00
39555;BME280;25231;48.746;9.234;2023-02-12T12:03:14;98637.81;;;7.36;100.00
39555;BME280;25231;48.746;9.234;2023-02-12T12:06:00;98640.44;;;7.44;100.00
39555;BME280;25231;48.746;9.234;2023-02-12T12:08:33;98634.75;;;7.57;100.00
39555;BME280;25231;48.746;9.234;2023-02-12T12:11:15;98632.81;;;7.67;100.00
39555;BME280;25231;48.746;9.234;2023-02-12T12:13:48;98631.31;;;7.65;100.00
39555;BME280;25231;48.746;9.234;2023-02-12T12:16:26;98633.13;;;7.80;100.00
39555;BME280;25231;48.746;9.234;2023-02-12T12:19:17;98628.91;;;7.63;100.00
39555;BME280;25231;48.746;9.234;2023-02-12T12:28:00;98631.31;;;7.81;100.00
39555;BME280;25231;48.746;9.234;2023-02-12T12:33:37;98625.59;;;8.34;100.00
39555;BME280;25231;48.746;9.234;2023-02-12T12:47:26;98624.84;;;7.02;100.00
39555;BME280;25231;48.746;9.234;2023-02-12T12:52:39;98612.22;;;7.40;100.00
39555;BME280;25231;48.746;9.234;2023-02-12T13:03:43;98602.78;;;7.39;100.00
39555;BME280;25231;48.746;9.234;2023-02-12T13:15:04;98590.56;;;7.56;100.00
39555;BME280;25231;48.746;9.234;2023-02-12T13:18:03;98582.38;;;7.83;100.00
39555;BME280;25231;48.746;9.234;2023-02-12T13:23:45;98591.69;;;8.02;100.00
39555;BME280;25231;48.746;9.234;2023-02-12T13:34:31;98572.38;;;8.19;99.82
39555;BME280;25231;48.746;9.234;2023-02-12T13:37:00;98584.50;;;7.96;100.00
39555;BME280;25231;48.746;9.234;2023-02-12T13:39:40;98572.38;;;8.11;100.00
39555;BME280;25231;48.746;9.234;2023-02-12T13:44:48;98570.41;;;8.29;99.25
39555;BME280;25231;48.746;9.234;2023-02-12T13:50:34;98568.81;;;8.04;100.00
39555;BME280;25231;48.746;9.234;2023-02-12T13:56:44;98565.97;;;8.38;98.37
39555;BME280;25231;48.746;9.234;2023-02-12T13:58:52;98560.00;;;8.13;100.00
39555;BME280;25231;48.746;9.234;2023-02-12T14:01:36;98559.44;;;8.25;99.82
39555;BME280;25231;48.746;9.234;2023-02-12T14:07:02;98559.53;;;8.01;100.00
39555;BME280;25231;48.746;9.234;2023-02-12T14:09:33;98554.16;;;7.70;100.00
39555;BME280;25231;48.746;9.234;2023-02-12T14:12:00;98554.50;;;7.83;100.00
39555;BME280;25231;48.746;9.234;2023-02-12T14:14:47;98551.34;;;8.04;100.00
39555;BME280;25231;48.746;9.234;2023-02-12T14:37:53;98527.56;;;7.83;100.00
39555;BME280;25231;48.746;9.234;2023-02-12T14:43:25;98527.09;;;7.79;100.00
39555;BME280;25231;48.746;9.234;2023-02-12T14:45:52;98523.66;;;7.79;100.00
39555;BME280;25231;48.746;9.234;2023-02-12T14:48:44;98522.00;;;7.86;100.00
39555;BME280;25231;48.746;9.234;2023-02-12T14:51:19;98528.38;;;7.83;100.00
39555;BME280;25231;48.746;9.234;2023-02-12T14:53:47;98520.75;;;7.74;100.00
39555;BME280;25231;48.746;9.234;2023-02-12T14:56:19;98528.88;;;7.71;100.00
39555;BME280;25231;48.746;9.234;2023-02-12T14:58:47;98520.56;;;7.75;100.00
39555;BME280;25231;48.746;9.234;2023-02-12T15:01:13;98521.34;;;7.92;100.00
39555;BME280;25231;48.746;9.234;2023-02-12T15:03:44;98522.69;;;7.80;100.00
39555;BME280;25231;48.746;9.234;2023-02-12T15:06:16;98530.63;;;8.03;100.00
39555;BME280;25231;48.746;9.234;2023-02-12T15:16:37;98533.63;;;7.59;100.00
39555;BME280;25231;48.746;9.234;2023-02-12T15:21:42;98533.28;;;7.70;100.00
39555;BME280;25231;48.746;9.234;2023-02-12T15:24:12;98530.38;;;7.73;100.00
39555;BME280;25231;48.746;9.234;2023-02-12T15:26:41;98527.78;;;7.57;100.00
39555;BME280;25231;48.746;9.234;2023-02-12T15:29:23;98519.75;;;7.83;100.00
39555;BME280;25231;48.746;9.234;2023-02-12T15:32:05;98520.22;;;7.86;100.00
39555;BME280;25231;48.746;9.234;2023-02-12T15:34:33;98527.28;;;7.62;100.00
39555;BME280;25231;48.746;9.234;2023-02-12T15:37:03;98515.69;;;7.64;100.00
39555;BME280;25231;48.746;9.234;2023-02-12T15:39:48;98520.44;;;7.61;100.00
39555;BME280;25231;48.746;9.234;2023-02-12T15:42:33;98525.16;;;7.49;100.00
39555;BME280;25231;48.746;9.234;2023-02-12T15:47:41;98516.53;;;7.48;100.00
39555;BME280;25231;48.746;9.234;2023-02-12T15:50:15;98513.28;;;7.38;100.00
39555;BME280;25231;48.746;9.234;2023-02-12T15:52:43;98510.50;;;7.32;100.00
39555;BME280;25231;48.746;9.234;2023-02-12T15:55:31;98508.56;;;7.34;100.00
39555;BME280;25231;48.746;9.234;2023-02-12T15:57:59;98512.13;;;7.41;100.00
39555;BME280;25231;48.746;9.234;2023-02-12T16:00:34;98518.81;;;7.27;100.00
39555;BME280;25231;48.746;9.234;2023-02-12T16:03:03;98514.38;;;7.03;100.00
39555;BME280;25231;48.746;9.234;2023-02-12T16:05:30;98513.09;;;7.07;100.00
39555;BME280;25231;48.746;9.234;2023-02-12T16:07:56;98505.59;;;6.96;100.00
39555;BME280;25231;48.746;9.234;2023-02-12T16:10:23;98517.66;;;7.05;100.00
39555;BME280;25231;48.746;9.234;2023-02-12T16:12:49;98515.88;;;7.06;100.00